Time;durP1;ratioP1;P1;durP2;ratioP2;P2;SDS_P1;SDS_P2;PMS_P1;PMS_P2;Temp;Humidity;BMP_temperature;BMP_pressure;BME280_temperature;BME280_humidity;BME280_pressure;Samples;Min_cycle;Max_cycle;Signal;HPM_P1;HPM_P2
2022/03/29 00:01:41;;;;;;;19.85;9.70;;;;;;;8.02;67.44;101593.63;5029657;28;20029;-84
2022/03/29 00:04:06;;;;;;;21.30;10.10;;;;;;;8.00;67.65;101597.94;5032213;28;20403;-84
2022/03/29 00:06:32;;;;;;;19.63;9.90;;;;;;;7.97;67.91;101604.00;5036712;28;20025;-84
2022/03/29 00:08:58;;;;;;;18.95;9.77;;;;;;;7.93;68.20;101594.50;5036008;28;20116;-84
2022/03/29 00:11:23;;;;;;;15.75;8.50;;;;;;;7.85;67.62;101591.09;5037152;28;20053;-84
2022/03/29 00:13:49;;;;;;;17.40;9.02;;;;;;;7.82;67.47;101593.69;5033859;28;20515;-84
2022/03/29 00:16:14;;;;;;;18.05;8.15;;;;;;;7.80;67.68;101592.81;5037795;28;20111;-84
2022/03/29 00:18:39;;;;;;;15.38;8.95;;;;;;;7.77;67.99;101588.47;5043317;28;20203;-84
2022/03/29 00:21:05;;;;;;;17.30;9.00;;;;;;;7.74;67.97;101583.34;5036084;28;20032;-84
2022/03/29 00:23:30;;;;;;;16.00;8.63;;;;;;;7.73;68.18;101586.78;5040065;28;20029;-84
2022/03/29 00:25:55;;;;;;;16.10;9.02;;;;;;;7.69;68.09;101585.91;5026355;28;20116;-84
2022/03/29 00:28:21;;;;;;;17.65;9.30;;;;;;;7.67;68.43;101585.06;5033873;28;20534;-84
2022/03/29 00:30:46;;;;;;;15.77;9.10;;;;;;;7.65;68.53;101573.84;5033639;28;20037;-84
2022/03/29 00:33:11;;;;;;;20.20;10.00;;;;;;;7.66;68.96;101583.34;5043871;28;20029;-84
2022/03/29 00:35:36;;;;;;;18.58;9.63;;;;;;;7.63;68.84;101575.59;5044668;28;20028;-84
2022/03/29 00:38:02;;;;;;;19.35;10.10;;;;;;;7.63;69.00;101574.69;5015281;28;20068;-84
2022/03/29 00:40:27;;;;;;;17.77;9.80;;;;;;;7.61;68.97;101561.78;5036139;28;20068;-84
2022/03/29 00:42:52;;;;;;;18.90;10.20;;;;;;;7.62;69.20;101557.44;5030554;28;20436;-84
2022/03/29 00:45:18;;;;;;;20.67;10.23;;;;;;;7.61;69.35;101551.41;5031283;28;20034;-84
2022/03/29 00:47:44;;;;;;;18.90;10.65;;;;;;;7.62;69.57;101554.84;5030140;28;20510;-84
2022/03/29 00:50:10;;;;;;;21.10;11.23;;;;;;;7.53;70.26;101556.59;5037620;28;20406;-84
2022/03/29 00:52:38;;;;;;;18.15;10.27;;;;;;;7.48;70.14;101550.56;5041451;28;20069;-84
2022/03/29 00:55:05;;;;;;;20.10;10.73;;;;;;;7.43;70.43;101554.88;5040481;28;20392;-84
2022/03/29 00:57:33;;;;;;;21.65;10.73;;;;;;;7.37;70.43;101547.97;5023296;28;20102;-84
2022/03/29 00:59:59;;;;;;;22.88;11.73;;;;;;;7.37;70.69;101553.16;5040096;28;20040;-84
2022/03/29 01:02:24;;;;;;;23.33;11.18;;;;;;;7.31;70.16;101545.41;5032258;28;20037;-84
2022/03/29 01:04:49;;;;;;;20.95;10.60;;;;;;;7.31;70.78;101539.38;5029888;28;20036;-84
2022/03/29 01:07:15;;;;;;;22.92;10.38;;;;;;;7.30;70.80;101538.50;5034413;28;20025;-84
2022/03/29 01:09:40;;;;;;;25.23;12.38;;;;;;;7.33;70.54;101529.88;5033069;28;20060;-84
2022/03/29 01:12:06;;;;;;;23.10;11.50;;;;;;;7.32;70.99;101533.31;5032876;28;20040;-85
2022/03/29 01:14:32;;;;;;;20.30;11.32;;;;;;;7.26;71.10;101534.19;5032941;28;20125;-84
2022/03/29 01:19:43;;;;;;;20.80;11.60;;;;;;;7.16;71.84;101532.50;5038233;28;20040;-84
2022/03/29 01:22:09;;;;;;;24.48;11.82;;;;;;;7.14;71.79;101529.88;5031949;28;20053;-84
2022/03/29 01:24:36;;;;;;;26.95;12.45;;;;;;;7.10;72.26;101523.84;5031767;28;20032;-84
2022/03/29 01:27:07;;;;;;;26.20;12.68;;;;;;;7.08;71.97;101519.56;5033102;28;20029;-87
2022/03/29 01:29:34;;;;;;;23.45;11.73;;;;;;;7.06;72.09;101522.13;5033021;28;20535;-84
2022/03/29 01:32:04;;;;;;;22.67;11.85;;;;;;;7.01;71.59;101518.66;5014425;28;20036;-84
2022/03/29 01:34:31;;;;;;;21.10;11.50;;;;;;;7.00;71.93;101509.22;5042136;28;20053;-84
2022/03/29 01:36:56;;;;;;;23.58;12.07;;;;;;;6.99;72.63;101520.41;5035291;28;20040;-84
2022/03/29 01:39:22;;;;;;;22.83;12.60;;;;;;;6.97;72.27;101514.38;5033720;28;20033;-84
2022/03/29 01:41:48;;;;;;;24.15;12.32;;;;;;;6.91;73.00;101512.66;5037580;28;20542;-84
2022/03/29 01:44:14;;;;;;;24.08;12.50;;;;;;;6.87;73.26;101512.63;5044821;28;20052;-84
2022/03/29 01:46:40;;;;;;;24.15;12.68;;;;;;;6.82;72.97;101508.34;5032569;28;20052;-84
2022/03/29 01:49:05;;;;;;;23.40;13.00;;;;;;;6.80;73.55;101507.47;5028824;28;20073;-84
2022/03/29 01:51:31;;;;;;;23.27;12.82;;;;;;;6.78;72.52;101509.19;5031222;28;20094;-84
2022/03/29 01:54:05;;;;;;;22.10;12.65;;;;;;;6.78;72.72;101504.03;5033673;28;20048;-84
2022/03/29 01:56:32;;;;;;;24.15;13.00;;;;;;;6.80;72.93;101509.19;5037970;28;20043;-84
2022/03/29 01:58:58;;;;;;;22.98;12.13;;;;;;;6.79;72.17;101502.28;5039016;28;20059;-84
2022/03/29 02:01:23;;;;;;;25.13;13.13;;;;;;;6.78;72.68;101492.81;5044276;28;20041;-84
2022/03/29 02:03:48;;;;;;;24.77;13.40;;;;;;;6.77;73.11;101491.94;5036291;28;20064;-84
2022/03/29 02:06:14;;;;;;;23.52;12.55;;;;;;;6.77;73.11;101486.78;5038532;28;20112;-84
2022/03/29 02:08:39;;;;;;;25.92;12.95;;;;;;;6.77;72.88;101497.13;5032238;28;20112;-84
2022/03/29 02:11:06;;;;;;;27.50;13.55;;;;;;;6.77;73.43;101491.06;5032390;28;20025;-84
2022/03/29 02:13:31;;;;;;;26.63;13.95;;;;;;;6.74;73.54;101491.09;5033373;28;20483;-84
2022/03/29 02:15:56;;;;;;;29.58;14.75;;;;;;;6.74;74.27;101489.34;5042806;28;20025;-84
2022/03/29 02:18:22;;;;;;;26.65;13.63;;;;;;;6.74;74.02;101486.78;5031556;28;20026;-84
2022/03/29 02:20:47;;;;;;;25.17;14.20;;;;;;;6.77;74.06;101479.03;5031394;28;20029;-84
2022/03/29 02:23:15;;;;;;;26.65;14.15;;;;;;;6.75;73.75;101478.16;5035860;28;20035;-84
2022/03/29 02:25:41;;;;;;;24.90;14.35;;;;;;;6.73;74.30;101468.69;5029855;28;20033;-84
2022/03/29 02:28:07;;;;;;;25.35;14.77;;;;;;;6.74;74.18;101460.91;5035374;28;20150;-84
2022/03/29 02:30:32;;;;;;;30.05;16.52;;;;;;;6.75;74.41;101454.88;5039281;28;20476;-84
2022/03/29 02:32:58;;;;;;;29.15;15.82;;;;;;;6.77;74.37;101453.16;5035416;28;20028;-84
2022/03/29 02:35:24;;;;;;;28.80;16.52;;;;;;;6.76;74.21;101447.97;5038408;28;20029;-84
2022/03/29 02:37:49;;;;;;;31.88;17.55;;;;;;;6.76;73.88;101451.44;5020503;28;20120;-84
2022/03/29 02:40:14;;;;;;;30.90;16.60;;;;;;;6.76;74.18;101447.97;5029174;28;20037;-84
2022/03/29 02:42:41;;;;;;;33.80;18.65;;;;;;;6.76;74.09;101441.09;5029930;28;20140;-84
2022/03/29 02:45:07;;;;;;;32.10;17.73;;;;;;;6.75;74.31;101438.50;5011169;28;20037;-84
2022/03/29 02:47:33;;;;;;;32.78;19.25;;;;;;;6.74;74.27;101437.63;5034429;28;20037;-84
2022/03/29 02:49:58;;;;;;;31.75;18.77;;;;;;;6.74;74.28;101432.47;5030675;28;20442;-84
2022/03/29 02:52:23;;;;;;;34.00;19.70;;;;;;;6.75;74.27;101429.03;5033827;28;20072;-84
2022/03/29 02:54:48;;;;;;;33.53;19.35;;;;;;;6.76;74.46;101425.56;5032555;28;20192;-84
2022/03/29 02:57:14;;;;;;;36.13;20.83;;;;;;;6.77;74.31;101431.59;5013058;28;20038;-84
2022/03/29 02:59:39;;;;;;;35.63;19.67;;;;;;;6.77;74.80;101418.66;5028407;28;20391;-84
2022/03/29 03:02:05;;;;;;;34.47;20.08;;;;;;;6.75;74.64;101423.84;5030853;28;20061;-84
2022/03/29 03:04:30;;;;;;;34.03;19.25;;;;;;;6.74;74.83;101416.94;5029876;28;20079;-84
2022/03/29 03:06:56;;;;;;;35.38;20.00;;;;;;;6.74;74.71;101411.78;5026525;28;20116;-84
2022/03/29 03:09:21;;;;;;;37.05;20.60;;;;;;;6.71;74.81;101406.59;5029085;28;20029;-84
2022/03/29 03:11:46;;;;;;;35.67;20.00;;;;;;;6.70;74.97;101417.81;5028085;28;20041;-84
2022/03/29 03:14:12;;;;;;;33.60;19.35;;;;;;;6.68;74.81;101416.94;5029575;28;20469;-84
2022/03/29 03:16:37;;;;;;;34.13;20.00;;;;;;;6.66;75.02;101416.97;5028887;28;20043;-84
2022/03/29 03:19:02;;;;;;;33.65;19.48;;;;;;;6.65;74.77;101412.66;5026981;28;20048;-84
2022/03/29 03:21:27;;;;;;;34.90;19.67;;;;;;;6.62;75.05;101407.47;5027363;28;20548;-84
2022/03/29 03:23:53;;;;;;;35.53;20.13;;;;;;;6.61;74.66;101407.47;5028414;28;20033;-84
2022/03/29 03:26:19;;;;;;;34.20;19.67;;;;;;;6.59;74.78;101409.19;5033840;28;20071;-84
2022/03/29 03:28:44;;;;;;;36.55;20.05;;;;;;;6.57;74.61;101405.75;5030126;28;20041;-84
2022/03/29 03:31:09;;;;;;;36.22;19.88;;;;;;;6.53;75.37;101400.56;5029290;28;20125;-84
2022/03/29 03:33:35;;;;;;;34.70;19.83;;;;;;;6.53;74.95;101404.91;5038125;28;20037;-84
2022/03/29 03:36:00;;;;;;;42.33;20.65;;;;;;;6.50;74.67;101402.31;5028409;28;20025;-84
2022/03/29 03:38:25;;;;;;;35.83;19.23;;;;;;;6.47;74.92;101398.00;5028976;28;20044;-84
2022/03/29 03:40:50;;;;;;;35.42;19.83;;;;;;;6.45;74.95;101399.72;5028322;28;20029;-84
2022/03/29 03:43:16;;;;;;;35.45;20.02;;;;;;;6.44;74.99;101400.59;5032157;28;20033;-84
2022/03/29 03:45:41;;;;;;;35.35;20.10;;;;;;;6.42;75.22;101394.56;5029115;28;20036;-84
2022/03/29 03:48:07;;;;;;;42.67;21.08;;;;;;;6.41;75.48;101392.81;5031250;28;20033;-84
2022/03/29 03:50:32;;;;;;;39.40;21.35;;;;;;;6.38;74.83;101392.81;5035873;28;20139;-84
2022/03/29 03:52:59;;;;;;;37.42;20.42;;;;;;;6.34;75.14;101386.78;5029468;28;20052;-83
2022/03/29 03:55:24;;;;;;;36.60;20.38;;;;;;;6.30;75.25;101387.66;5011646;28;20017;-84
2022/03/29 03:57:50;;;;;;;36.08;19.98;;;;;;;6.28;75.38;101389.38;5032439;28;20113;-84
2022/03/29 04:00:16;;;;;;;38.40;20.63;;;;;;;6.26;75.22;101383.34;5025530;28;20077;-84
2022/03/29 04:02:42;;;;;;;38.50;21.08;;;;;;;6.25;75.54;101380.75;5035905;28;20037;-84
2022/03/29 04:05:12;;;;;;;39.15;21.48;;;;;;;6.23;75.68;101375.59;5035278;28;20040;-84
2022/03/29 04:07:37;;;;;;;37.63;20.67;;;;;;;6.21;75.25;101369.56;5009240;28;20037;-84
2022/03/29 04:10:02;;;;;;;37.83;19.70;;;;;;;6.20;75.40;101363.53;5028953;28;20033;-84
2022/03/29 04:12:28;;;;;;;39.20;21.17;;;;;;;6.18;75.78;101370.41;5025804;28;20518;-84
2022/03/29 04:14:54;;;;;;;41.45;22.10;;;;;;;6.17;75.93;101366.09;5029855;28;20025;-84
2022/03/29 04:17:19;;;;;;;38.33;20.48;;;;;;;6.16;76.06;101366.09;5029859;28;20539;-84
2022/03/29 04:19:45;;;;;;;40.25;20.70;;;;;;;6.15;76.13;101359.22;5029476;28;20477;-84
2022/03/29 04:22:10;;;;;;;40.78;20.92;;;;;;;6.14;76.12;101360.97;5029935;28;20061;-84
2022/03/29 04:24:35;;;;;;;42.10;21.88;;;;;;;6.14;76.53;101358.38;5028928;28;20025;-84
2022/03/29 04:27:00;;;;;;;43.58;22.42;;;;;;;6.14;76.66;101355.78;5028420;28;20469;-83
2022/03/29 04:29:26;;;;;;;40.55;21.08;;;;;;;6.13;76.87;101351.47;5027738;28;20999;-84
2022/03/29 04:31:52;;;;;;;40.15;21.33;;;;;;;6.15;76.56;101349.72;5010721;28;20099;-84
2022/03/29 04:34:17;;;;;;;38.72;20.58;;;;;;;6.17;76.51;101358.34;5026111;28;20049;-84
2022/03/29 04:36:43;;;;;;;42.22;21.63;;;;;;;6.20;77.09;101349.75;5035618;28;20069;-84
2022/03/29 04:39:08;;;;;;;43.63;21.90;;;;;;;6.20;76.71;101353.19;5026999;28;20038;-84
2022/03/29 04:41:34;;;;;;;45.35;22.65;;;;;;;6.20;76.73;101350.59;5032072;28;20523;-84
2022/03/29 04:43:59;;;;;;;42.35;22.42;;;;;;;6.21;76.66;101346.31;5031355;28;20083;-84
2022/03/29 04:46:25;;;;;;;45.72;21.88;;;;;;;6.19;76.97;101346.28;5028242;28;20034;-84
2022/03/29 04:48:52;;;;;;;44.08;22.73;;;;;;;6.19;77.16;101341.13;5023356;28;20033;-84
2022/03/29 04:51:18;;;;;;;42.95;22.70;;;;;;;6.20;76.80;101342.00;5038827;28;20592;-84
2022/03/29 04:53:43;;;;;;;43.72;22.48;;;;;;;6.19;77.12;101341.13;5039113;28;20040;-84
2022/03/29 04:56:08;;;;;;;44.45;22.98;;;;;;;6.20;77.40;101344.59;5037025;28;20382;-84
2022/03/29 04:58:34;;;;;;;41.92;21.52;;;;;;;6.18;77.36;101339.41;5034073;28;20048;-84
2022/03/29 05:00:59;;;;;;;39.60;21.42;;;;;;;6.14;77.12;101342.88;5036670;28;20095;-83
2022/03/29 05:03:25;;;;;;;40.00;20.35;;;;;;;6.15;77.53;101341.13;5010508;28;20029;-84
2022/03/29 05:05:50;;;;;;;39.03;20.17;;;;;;;6.16;77.37;101343.69;5035801;28;20026;-83
2022/03/29 05:08:15;;;;;;;42.20;21.00;;;;;;;6.17;77.67;101339.41;5031877;28;20491;-84
2022/03/29 05:10:41;;;;;;;41.67;21.65;;;;;;;6.18;77.88;101344.56;5033278;28;20380;-84
2022/03/29 05:13:06;;;;;;;43.47;21.58;;;;;;;6.20;77.25;101336.84;5039407;28;20025;-84
2022/03/29 05:15:32;;;;;;;42.10;21.70;;;;;;;6.21;77.97;101335.97;5036372;28;20096;-84
2022/03/29 05:17:57;;;;;;;45.88;22.05;;;;;;;6.22;77.72;101338.56;5031438;28;20216;-83
2022/03/29 05:20:24;;;;;;;43.00;23.08;;;;;;;6.23;77.60;101337.69;5030148;28;20495;-84
2022/03/29 05:22:51;;;;;;;43.05;22.15;;;;;;;6.23;78.10;101326.50;5031871;28;20043;-84
2022/03/29 05:25:20;;;;;;;45.53;22.02;;;;;;;6.23;77.51;101332.53;5028988;28;20025;-84
2022/03/29 05:27:46;;;;;;;44.08;22.13;;;;;;;6.23;77.78;101327.34;5030145;28;20428;-83
2022/03/29 05:30:12;;;;;;;44.83;22.20;;;;;;;6.26;77.84;101335.97;5030878;28;20492;-83
2022/03/29 05:32:38;;;;;;;47.05;22.35;;;;;;;6.23;77.92;101327.34;5032548;28;20028;-84
2022/03/29 05:35:05;;;;;;;42.78;22.00;;;;;;;6.24;78.01;101325.63;5030989;28;20100;-84
2022/03/29 05:37:30;;;;;;;50.75;23.60;;;;;;;6.21;77.84;101329.06;5033781;28;20045;-84
2022/03/29 05:39:55;;;;;;;45.05;22.15;;;;;;;6.22;77.32;101322.19;5030926;28;20065;-84
2022/03/29 05:42:21;;;;;;;44.53;21.77;;;;;;;6.18;77.88;101334.25;5013814;28;20465;-84
2022/03/29 05:44:46;;;;;;;41.88;21.67;;;;;;;6.15;78.38;101331.66;5025923;28;20071;-84
2022/03/29 05:50:16;;;;;;;45.20;22.45;;;;;;;6.14;77.97;101329.94;4946591;28;20046;-84
2022/03/29 05:52:41;;;;;;;45.00;21.98;;;;;;;6.15;78.06;101318.72;4944501;28;20031;-84
2022/03/29 05:55:07;;;;;;;49.45;22.13;;;;;;;6.15;78.32;101325.63;4981959;28;20060;-84
2022/03/29 05:57:32;;;;;;;47.22;23.75;;;;;;;6.15;78.38;101318.72;5031029;28;20079;-84
2022/03/29 05:59:57;;;;;;;44.38;22.13;;;;;;;6.17;78.40;101311.00;5027997;28;20076;-84
2022/03/29 06:02:24;;;;;;;47.35;22.90;;;;;;;6.19;78.64;101312.72;5029884;28;20037;-84
2022/03/29 06:04:50;;;;;;;48.13;23.33;;;;;;;6.17;78.41;101311.84;5009456;28;20048;-84
2022/03/29 06:07:15;;;;;;;45.05;21.50;;;;;;;6.20;78.47;101311.84;5025819;28;20033;-84
2022/03/29 06:09:41;;;;;;;48.47;23.38;;;;;;;6.23;78.44;101311.00;5030189;28;20087;-84
2022/03/29 06:12:06;;;;;;;48.78;22.30;;;;;;;6.28;78.98;101318.75;5028319;28;20029;-84
2022/03/29 06:14:32;;;;;;;49.67;22.98;;;;;;;6.29;78.90;101320.47;5028464;28;20037;-85
2022/03/29 06:16:59;;;;;;;45.38;22.08;;;;;;;6.30;78.63;101319.63;5028919;28;20078;-84
2022/03/29 06:19:25;;;;;;;48.92;23.00;;;;;;;6.33;78.84;101319.59;5032037;28;20036;-84
2022/03/29 06:21:50;;;;;;;44.55;21.98;;;;;;;6.34;78.80;101313.56;5035300;28;20041;-84
2022/03/29 06:24:15;;;;;;;43.15;21.48;;;;;;;6.35;78.82;101321.34;5028771;28;20525;-84
2022/03/29 06:26:40;;;;;;;46.00;21.80;;;;;;;6.33;78.82;101315.31;5027971;28;20040;-84
2022/03/29 06:29:06;;;;;;;41.33;20.85;;;;;;;6.31;78.92;101309.28;5032797;28;20525;-84
2022/03/29 06:31:32;;;;;;;43.85;21.80;;;;;;;6.31;78.73;101319.59;5027972;28;20045;-83
2022/03/29 06:33:58;;;;;;;49.00;21.52;;;;;;;6.32;78.73;101320.47;5028944;28;20506;-84
2022/03/29 06:36:24;;;;;;;47.80;20.75;;;;;;;6.33;78.46;101320.47;5033429;28;20045;-84
2022/03/29 06:38:49;;;;;;;40.47;20.27;;;;;;;6.33;78.88;101319.59;5027950;28;20026;-83
2022/03/29 06:41:15;;;;;;;41.08;20.45;;;;;;;6.32;78.63;101321.31;5011928;28;20041;-84
2022/03/29 06:43:41;;;;;;;41.58;20.30;;;;;;;6.34;79.16;101321.31;5028274;28;20056;-83
2022/03/29 06:46:08;;;;;;;42.50;21.23;;;;;;;6.37;78.86;101317.03;5029325;28;20029;-83
2022/03/29 06:48:35;;;;;;;42.08;21.00;;;;;;;6.40;78.88;101323.91;5007904;28;20644;-84
2022/03/29 06:51:00;;;;;;;41.47;20.35;;;;;;;6.37;78.62;101327.38;5032334;28;20056;-84
2022/03/29 06:53:25;;;;;;;41.13;20.27;;;;;;;6.35;79.12;101318.75;5029350;28;20064;-83
2022/03/29 06:55:51;;;;;;;41.33;20.35;;;;;;;6.35;78.67;101315.28;5028965;28;20112;-83
2022/03/29 06:58:17;;;;;;;40.65;19.67;;;;;;;6.33;79.15;101319.59;5030357;28;20031;-83
2022/03/29 07:00:43;;;;;;;38.67;19.38;;;;;;;6.32;79.05;101317.91;5046373;28;20029;-83
2022/03/29 07:03:09;;;;;;;39.42;19.40;;;;;;;6.33;79.46;101324.75;5031760;28;20036;-84
2022/03/29 07:05:38;;;;;;;41.30;19.65;;;;;;;6.36;79.31;101319.59;5033251;28;20076;-83
2022/03/29 07:08:06;;;;;;;44.03;20.05;;;;;;;6.36;79.08;101317.00;5015753;28;20029;-83
2022/03/29 07:13:16;;;;;;;44.00;20.88;;;;;;;6.44;79.27;101314.41;5031113;28;20512;-83
2022/03/29 07:15:42;;;;;;;45.30;20.33;;;;;;;6.46;78.86;101312.69;5031617;28;20025;-84
2022/03/29 07:18:07;;;;;;;43.38;20.90;;;;;;;6.46;78.95;101313.56;5031509;28;20031;-83
2022/03/29 07:20:33;;;;;;;49.38;21.88;;;;;;;6.48;78.93;101314.44;5031597;28;20460;-84
2022/03/29 07:22:58;;;;;;;45.78;21.38;;;;;;;6.47;78.89;101315.31;5013906;28;20057;-83
2022/03/29 07:25:27;;;;;;;45.22;21.33;;;;;;;6.49;79.07;101323.03;5031913;28;20030;-84
2022/03/29 07:27:53;;;;;;;48.90;21.52;;;;;;;6.49;78.81;101318.72;5029371;28;20031;-83
2022/03/29 07:30:20;;;;;;;46.70;21.13;;;;;;;6.50;78.97;101322.19;5033902;28;20053;-83
2022/03/29 07:32:53;;;;;;;45.20;20.52;;;;;;;6.49;79.51;101323.88;5030631;28;20435;-84
2022/03/29 07:35:20;;;;;;;49.58;22.08;;;;;;;6.55;79.04;101317.88;5034027;28;20076;-83
2022/03/29 07:37:46;;;;;;;50.45;22.00;;;;;;;6.57;78.95;101310.97;5045665;28;20112;-83
2022/03/29 07:40:13;;;;;;;55.55;23.05;;;;;;;6.61;79.45;101317.84;5040399;28;20025;-84
2022/03/29 07:42:39;;;;;;;48.72;21.77;;;;;;;6.65;79.41;101311.81;5031069;28;20021;-83
2022/03/29 07:45:06;;;;;;;43.28;19.67;;;;;;;6.67;79.38;101311.78;5031480;28;20045;-83
2022/03/29 07:47:32;;;;;;;45.85;21.23;;;;;;;6.71;79.48;101318.69;5013660;28;20065;-84
2022/03/29 07:49:57;;;;;;;50.17;21.92;;;;;;;6.77;79.17;101323.88;5030986;28;20025;-83
2022/03/29 07:52:23;;;;;;;52.70;22.30;;;;;;;6.77;78.79;101315.22;5029496;28;20139;-84
2022/03/29 07:54:48;;;;;;;57.05;23.15;;;;;;;6.74;79.16;101313.53;5030780;28;20018;-84
2022/03/29 07:57:14;;;;;;;61.05;23.75;;;;;;;6.73;78.84;101310.94;5029535;28;20040;-84
2022/03/29 07:59:40;;;;;;;61.85;24.80;;;;;;;6.75;79.16;101315.25;5030320;28;20480;-84
2022/03/29 08:02:05;;;;;;;54.55;22.52;;;;;;;6.76;79.29;101308.34;5012573;28;20036;-84
2022/03/29 08:04:31;;;;;;;58.47;23.10;;;;;;;6.77;78.94;101298.00;5030356;28;20525;-84
2022/03/29 08:06:56;;;;;;;53.30;22.15;;;;;;;6.82;79.13;101316.09;5031086;28;20036;-83
2022/03/29 08:09:21;;;;;;;47.58;21.60;;;;;;;6.83;79.01;101316.06;5031256;28;20161;-84
2022/03/29 08:11:47;;;;;;;46.45;22.20;;;;;;;6.84;79.43;101325.56;5031074;28;20032;-83
2022/03/29 08:14:14;;;;;;;43.17;20.85;;;;;;;6.84;79.10;101314.34;5030906;28;20026;-84
2022/03/29 08:16:41;;;;;;;49.78;21.42;;;;;;;6.91;78.76;101318.66;5029910;28;20398;-84
2022/03/29 08:19:06;;;;;;;46.60;21.67;;;;;;;6.91;79.03;101322.97;5031110;28;20022;-84
2022/03/29 08:21:52;;;;;;;45.17;20.73;;;;;;;6.92;79.02;101322.09;5030978;28;20109;-84
2022/03/29 08:24:23;;;;;;;46.10;21.15;;;;;;;6.94;79.18;101317.78;5032001;28;20060;-84
2022/03/29 08:26:54;;;;;;;52.45;24.02;;;;;;;6.97;79.14;101326.38;5034115;28;20111;-84
2022/03/29 08:29:21;;;;;;;;;;;;;;;7.04;77.19;101321.22;5034009;28;20100;-84
2022/03/29 08:31:49;;;;;;;45.00;19.63;;;;;;;7.07;78.42;101316.03;5034126;28;19916;-84
2022/03/29 08:34:15;;;;;;;46.00;20.90;;;;;;;7.07;78.71;101316.88;5033642;28;20054;-83
2022/03/29 08:36:41;;;;;;;48.15;21.45;;;;;;;7.07;78.48;101314.28;5034293;28;20396;-84
2022/03/29 08:39:07;;;;;;;50.42;22.42;;;;;;;7.10;78.71;101314.28;5034411;28;20051;-83
2022/03/29 08:41:46;;;;;;;49.08;22.23;;;;;;;7.11;78.92;101313.41;5035365;28;20033;-83
2022/03/29 08:44:11;;;;;;;50.55;22.20;;;;;;;7.11;79.02;101313.41;5041348;28;20033;-83
2022/03/29 08:46:41;;;;;;;47.72;21.52;;;;;;;7.11;78.60;101313.41;5045090;28;20386;-83
2022/03/29 08:49:07;;;;;;;47.40;22.20;;;;;;;7.10;78.50;101308.22;5036364;28;20455;-83
2022/03/29 08:51:32;;;;;;;46.22;21.65;;;;;;;7.06;78.71;101309.97;5038326;28;20060;-83
2022/03/29 08:53:58;;;;;;;48.03;21.77;;;;;;;7.07;79.16;101308.25;5034525;28;20021;-83
2022/03/29 08:56:24;;;;;;;45.92;21.80;;;;;;;7.07;78.74;101303.09;5034403;28;20025;-83
2022/03/29 08:58:50;;;;;;;45.70;21.33;;;;;;;7.08;78.62;101304.81;5034192;28;20401;-83
2022/03/29 09:01:21;;;;;;;49.58;21.80;;;;;;;7.09;78.37;101304.78;5033929;28;20025;-83
2022/03/29 09:04:05;;;;;;;47.67;22.40;;;;;;;7.10;78.45;101303.94;5016728;28;20075;-84
2022/03/29 09:06:31;;;;;;;45.40;21.40;;;;;;;7.13;78.88;101306.50;5034141;28;20057;-83
2022/03/29 09:08:56;;;;;;;49.08;21.25;;;;;;;7.16;78.52;101292.69;5033696;28;20151;-83
2022/03/29 09:11:22;;;;;;;46.95;22.10;;;;;;;7.19;78.60;101300.44;5034064;28;20033;-83
2022/03/29 09:14:01;;;;;;;45.60;20.73;;;;;;;7.22;78.47;101309.91;5034108;28;20025;-83
2022/03/29 09:16:32;;;;;;;49.67;21.45;;;;;;;7.25;78.62;101300.44;5034514;28;20380;-83
2022/03/29 09:18:58;;;;;;;45.20;21.17;;;;;;;7.24;78.23;101311.66;5032865;28;20025;-83
2022/03/29 09:21:24;;;;;;;46.60;22.20;;;;;;;7.25;78.75;101317.66;5015830;28;20514;-83
2022/03/29 09:24:11;;;;;;;49.05;21.33;;;;;;;7.27;78.09;101313.34;5016102;28;20404;-83
2022/03/29 09:26:41;;;;;;;44.42;21.27;;;;;;;7.30;78.29;101308.16;5032837;28;20099;-83
2022/03/29 09:29:19;;;;;;;45.85;20.98;;;;;;;7.33;78.21;101312.47;5033188;28;20071;-84
2022/03/29 09:31:46;;;;;;;44.65;21.02;;;;;;;7.37;78.11;101306.41;5033827;28;20021;-83
2022/03/29 09:34:20;;;;;;;44.22;20.60;;;;;;;7.41;78.22;101308.97;5032705;28;20113;-84
2022/03/29 09:36:49;;;;;;;41.30;20.27;;;;;;;7.44;77.98;101298.59;5015183;28;20048;-83
2022/03/29 09:39:49;;;;;;;45.80;21.60;;;;;;;7.48;77.72;101302.03;5033211;28;20032;-83
2022/03/29 09:42:17;;;;;;;46.08;21.67;;;;;;;7.48;77.99;101308.94;5032225;28;20120;-83
2022/03/29 09:44:47;;;;;;;43.78;20.60;;;;;;;7.47;78.18;101300.31;5033389;28;20026;-84
2022/03/29 09:47:20;;;;;;;41.08;20.35;;;;;;;7.49;78.12;101290.81;5032644;28;20037;-83
2022/03/29 09:49:54;;;;;;;41.53;20.10;;;;;;;7.52;77.77;101288.19;5015733;28;20480;-84
2022/03/29 09:52:23;;;;;;;42.08;20.75;;;;;;;7.58;78.26;101285.59;5033081;28;20026;-83
2022/03/29 09:55:12;;;;;;;44.40;20.23;;;;;;;7.67;77.21;101287.25;5015504;28;20022;-84
2022/03/29 09:57:41;;;;;;;41.47;20.65;;;;;;;7.71;77.86;101288.94;5015090;28;20538;-84
2022/03/29 10:00:08;;;;;;;40.78;19.95;;;;;;;7.75;77.49;101289.78;5032683;28;20538;-84
2022/03/29 10:02:36;;;;;;;39.78;18.95;;;;;;;7.75;77.57;101290.63;5033073;28;20071;-84
2022/03/29 10:05:03;;;;;;;40.85;19.55;;;;;;;7.79;77.21;101288.88;5033001;28;20083;-84
2022/03/29 10:07:50;;;;;;;42.40;19.60;;;;;;;7.80;77.46;101287.16;5031787;28;20025;-83
2022/03/29 10:10:16;;;;;;;45.60;20.80;;;;;;;7.84;76.98;101273.31;5032031;28;20094;-84
2022/03/29 10:12:42;;;;;;;44.03;20.17;;;;;;;7.85;76.89;101264.69;5036076;28;20025;-84
2022/03/29 10:15:07;;;;;;;43.28;21.17;;;;;;;7.89;77.02;101267.22;5039013;28;20415;-84
2022/03/29 10:17:33;;;;;;;41.78;20.35;;;;;;;7.92;77.06;101261.16;5031011;28;20033;-84
2022/03/29 10:20:01;;;;;;;41.97;19.30;;;;;;;7.98;77.28;101260.25;5032758;28;20055;-84
2022/03/29 10:22:26;;;;;;;40.88;20.38;;;;;;;7.99;76.92;101257.66;5030963;28;20021;-84
2022/03/29 10:24:53;;;;;;;45.28;19.83;;;;;;;7.98;77.19;101258.53;5034566;28;20033;-84
2022/03/29 10:27:19;;;;;;;45.03;21.35;;;;;;;7.99;77.30;101256.78;5016228;28;20498;-84
2022/03/29 10:29:45;;;;;;;43.47;20.85;;;;;;;8.01;77.04;101250.75;5014225;28;20447;-84
2022/03/29 10:32:11;;;;;;;50.63;22.92;;;;;;;8.09;76.99;101252.38;5032389;28;20029;-85
2022/03/29 10:34:40;;;;;;;43.25;22.20;;;;;;;8.14;76.79;101241.09;5032562;28;20039;-84
2022/03/29 10:37:13;;;;;;;46.20;22.42;;;;;;;8.22;76.41;101245.38;5030224;28;20045;-84
2022/03/29 10:39:47;;;;;;;40.97;21.67;;;;;;;8.30;75.89;101241.81;5031957;28;20072;-85
2022/03/29 10:42:30;;;;;;;41.60;21.48;;;;;;;8.46;76.54;101241.66;5030972;28;20087;-84
2022/03/29 10:45:03;;;;;;;41.88;21.30;;;;;;;8.60;76.02;101237.22;5030950;28;20048;-84
2022/03/29 10:47:29;;;;;;;40.70;21.05;;;;;;;8.76;75.38;101242.22;5030331;28;20500;-85
2022/03/29 10:49:55;;;;;;;44.17;22.33;;;;;;;8.93;75.43;101242.03;5031970;28;20025;-85
2022/03/29 10:52:20;;;;;;;43.72;21.40;;;;;;;9.06;73.72;101234.94;5031855;28;20029;-84
2022/03/29 10:54:46;;;;;;;45.22;22.65;;;;;;;9.19;74.06;101233.91;5032153;28;20022;-84
2022/03/29 10:57:28;;;;;;;43.95;22.48;;;;;;;9.31;73.79;101237.22;5032525;28;20472;-85
2022/03/29 11:00:06;;;;;;;41.05;21.88;;;;;;;9.49;73.88;101230.88;5013647;28;20052;-84
2022/03/29 11:02:32;;;;;;;42.88;20.63;;;;;;;9.64;71.63;101230.66;5013971;28;20539;-85
2022/03/29 11:05:12;;;;;;;40.13;21.95;;;;;;;9.65;71.50;101228.91;5031595;28;20115;-85
2022/03/29 11:07:52;;;;;;;40.03;22.15;;;;;;;9.65;71.65;101221.13;5031674;28;20029;-85
2022/03/29 11:10:23;;;;;;;42.17;22.10;;;;;;;9.71;71.25;101219.28;5030548;28;20049;-84
2022/03/29 11:12:54;;;;;;;40.95;21.65;;;;;;;9.82;71.21;101211.31;5031762;28;20043;-84
2022/03/29 11:15:32;;;;;;;39.08;22.08;;;;;;;9.91;70.30;101217.22;5040219;28;20013;-85
2022/03/29 11:17:57;;;;;;;39.53;22.08;;;;;;;9.83;70.83;101209.56;5014198;28;20535;-85
2022/03/29 11:20:30;;;;;;;40.00;22.15;;;;;;;9.80;71.37;101215.69;5030807;28;20111;-85
2022/03/29 11:23:07;;;;;;;35.50;20.13;;;;;;;9.86;71.71;101212.13;5031187;28;20048;-85
2022/03/29 11:25:43;;;;;;;36.65;20.10;;;;;;;9.96;70.33;101205.03;5030905;28;20052;-84